createdAt,value
2023-04-12T00:00:00.091Z,1.72
2023-04-12T00:02:26.731Z,1.90
2023-04-12T00:04:53.266Z,1.53
2023-04-12T00:07:19.703Z,1.54
2023-04-12T00:09:46.103Z,1.61
2023-04-12T00:12:12.493Z,1.70
2023-04-12T00:14:38.893Z,1.70
2023-04-12T00:17:05.294Z,1.70
2023-04-12T00:19:31.709Z,1.63
2023-04-12T00:21:58.102Z,1.55
2023-04-12T00:24:24.487Z,1.52
2023-04-12T00:26:50.898Z,1.57
2023-04-12T00:29:17.275Z,1.51
2023-04-12T00:31:43.798Z,1.70
2023-04-12T00:34:10.269Z,1.72
2023-04-12T00:36:36.683Z,2.35
2023-04-12T00:39:03.094Z,1.87
2023-04-12T00:41:29.469Z,1.89
2023-04-12T00:43:56.165Z,2.12
2023-04-12T00:46:23.018Z,2.42
2023-04-12T00:48:49.423Z,4.79
2023-04-12T00:51:15.796Z,4.32
2023-04-12T00:53:42.251Z,2.51
2023-04-12T00:56:08.664Z,2.79
2023-04-12T00:58:35.064Z,2.43
2023-04-12T01:01:01.542Z,2.40
2023-04-12T01:03:28.246Z,2.45
2023-04-12T01:05:54.807Z,2.17
2023-04-12T01:08:21.215Z,2.36
2023-04-12T01:10:47.616Z,2.25
2023-04-12T01:13:14.007Z,2.19
2023-04-12T01:15:40.394Z,2.23
2023-04-12T01:18:06.811Z,2.33
2023-04-12T01:20:33.243Z,2.11
2023-04-12T01:22:59.634Z,1.97
2023-04-12T01:25:26.052Z,2.09
2023-04-12T01:27:52.439Z,1.94
2023-04-12T01:30:18.841Z,2.12
2023-04-12T01:32:45.260Z,2.54
2023-04-12T01:35:11.669Z,2.44
2023-04-12T01:37:38.071Z,2.25
2023-04-12T01:40:04.469Z,2.32
2023-04-12T01:42:30.874Z,2.28
2023-04-12T01:44:57.292Z,2.42
2023-04-12T01:47:23.731Z,2.20
2023-04-12T01:49:50.128Z,2.43
2023-04-12T01:52:16.566Z,3.51
2023-04-12T01:54:43.047Z,2.64
2023-04-12T01:57:09.500Z,2.49
2023-04-12T01:59:35.941Z,2.20
2023-04-12T02:02:02.436Z,2.23
2023-04-12T02:04:28.918Z,2.30
2023-04-12T02:06:55.333Z,2.28
2023-04-12T02:09:21.722Z,2.26
2023-04-12T02:11:48.126Z,2.31
2023-04-12T02:14:14.532Z,2.54
2023-04-12T02:16:40.980Z,2.28
2023-04-12T02:19:07.386Z,2.28
2023-04-12T02:21:33.803Z,2.32
2023-04-12T02:24:00.204Z,2.33
2023-04-12T02:26:26.595Z,2.17
2023-04-12T02:28:52.995Z,2.67
2023-04-12T02:31:19.467Z,2.70
2023-04-12T02:33:45.954Z,2.68
2023-04-12T02:36:12.492Z,2.66
2023-04-12T02:38:38.880Z,2.97
2023-04-12T02:41:05.285Z,2.40
2023-04-12T02:43:31.667Z,2.34
2023-04-12T02:45:58.137Z,2.13
2023-04-12T02:48:24.585Z,2.41
2023-04-12T02:50:50.999Z,2.11
2023-04-12T02:53:17.408Z,2.30
2023-04-12T02:55:43.816Z,2.33
2023-04-12T02:58:10.217Z,2.50
2023-04-12T03:00:36.614Z,2.59
2023-04-12T03:03:03.259Z,2.71
2023-04-12T03:05:29.830Z,3.11
2023-04-12T03:07:56.266Z,2.64
2023-04-12T03:10:22.681Z,2.14
2023-04-12T03:12:49.083Z,2.29
2023-04-12T03:15:15.514Z,2.35
2023-04-12T03:17:41.992Z,2.33
2023-04-12T03:20:08.457Z,2.07
2023-04-12T03:22:34.870Z,2.32
2023-04-12T03:25:01.259Z,2.34
2023-04-12T03:27:27.721Z,2.31
2023-04-12T03:29:54.116Z,2.46
2023-04-12T03:32:20.590Z,2.44
2023-04-12T03:34:47.026Z,2.39
2023-04-12T03:37:13.458Z,2.45
2023-04-12T03:39:39.917Z,2.39
2023-04-12T03:42:06.317Z,2.48
2023-04-12T03:44:32.747Z,2.34
2023-04-12T03:46:59.141Z,2.38
2023-04-12T03:49:25.553Z,2.18
2023-04-12T03:51:51.938Z,2.26
2023-04-12T03:54:18.377Z,2.29
2023-04-12T03:56:46.126Z,2.35
2023-04-12T03:59:12.820Z,2.33
2023-04-12T04:01:39.250Z,2.38
2023-04-12T04:04:05.864Z,2.69
2023-04-12T04:06:32.341Z,2.64
2023-04-12T04:08:58.724Z,2.75
2023-04-12T04:11:25.128Z,2.51
2023-04-12T04:13:51.550Z,2.42
2023-04-12T04:16:18.079Z,2.54
2023-04-12T04:18:44.643Z,2.41
2023-04-12T04:21:11.033Z,2.08
2023-04-12T04:23:37.439Z,2.11
2023-04-12T04:26:03.991Z,2.13
2023-04-12T04:28:30.399Z,2.17
2023-04-12T04:30:56.802Z,2.32
2023-04-12T04:33:23.181Z,2.27
2023-04-12T04:35:49.649Z,2.45
2023-04-12T04:38:16.082Z,2.30
2023-04-12T04:40:42.495Z,2.32
2023-04-12T04:43:08.905Z,2.53
2023-04-12T04:45:35.339Z,2.34
2023-04-12T04:48:01.836Z,2.38
2023-04-12T04:50:28.267Z,2.39
2023-04-12T04:52:54.682Z,2.41
2023-04-12T04:55:21.085Z,2.38
2023-04-12T04:57:47.469Z,2.24
2023-04-12T05:00:13.878Z,2.38
2023-04-12T05:02:40.490Z,2.27
2023-04-12T05:05:07.018Z,2.33
2023-04-12T05:07:33.602Z,2.40
2023-04-12T05:09:59.998Z,2.17
2023-04-12T05:12:26.396Z,2.11
2023-04-12T05:14:52.821Z,2.35
2023-04-12T05:17:19.201Z,2.30
2023-04-12T05:19:45.592Z,2.32
2023-04-12T05:22:12.000Z,2.32
2023-04-12T05:24:38.482Z,2.24
2023-04-12T05:27:04.888Z,2.19
2023-04-12T05:29:31.301Z,2.11
2023-04-12T05:31:57.699Z,1.94
2023-04-12T05:34:24.134Z,2.31
2023-04-12T05:36:50.518Z,1.97
2023-04-12T05:39:18.265Z,2.35
2023-04-12T05:41:46.527Z,2.23
2023-04-12T05:44:12.924Z,2.13
2023-04-12T05:46:39.485Z,2.21
2023-04-12T05:49:05.933Z,2.31
2023-04-12T05:51:40.272Z,2.24
2023-04-12T05:54:07.578Z,2.12
2023-04-12T05:56:34.040Z,1.95
2023-04-12T05:59:00.452Z,1.94
2023-04-12T06:01:26.860Z,2.06
2023-04-12T06:03:53.456Z,1.98
2023-04-12T06:06:19.951Z,1.98
2023-04-12T06:08:46.346Z,2.13
2023-04-12T06:11:12.741Z,1.90
2023-04-12T06:13:39.125Z,1.85
2023-04-12T06:16:05.603Z,1.95
2023-04-12T06:18:32.004Z,1.78
2023-04-12T06:20:58.401Z,1.85
2023-04-12T06:23:24.784Z,2.01
2023-04-12T06:25:51.176Z,1.70
2023-04-12T06:28:17.574Z,1.84
2023-04-12T06:30:43.984Z,1.86
2023-04-12T06:33:10.454Z,1.73
2023-04-12T06:35:36.878Z,1.83
2023-04-12T06:38:03.331Z,1.92
2023-04-12T06:40:29.756Z,1.74
2023-04-12T06:42:56.130Z,1.69
2023-04-12T06:45:22.524Z,1.83
2023-04-12T06:47:49.010Z,1.81
2023-04-12T06:50:15.456Z,1.80
2023-04-12T06:52:41.881Z,1.79
2023-04-12T06:55:08.274Z,1.97
2023-04-12T06:57:34.756Z,1.83
2023-04-12T07:00:01.199Z,1.82
2023-04-12T07:02:27.768Z,1.68
2023-04-12T07:04:54.350Z,2.00
2023-04-12T07:07:20.782Z,2.09
2023-04-12T07:09:47.261Z,2.00
2023-04-12T07:12:13.684Z,1.83
2023-04-12T07:14:40.121Z,2.01
2023-04-12T07:17:06.544Z,1.79
2023-04-12T07:19:32.949Z,1.90
2023-04-12T07:21:59.360Z,1.69
2023-04-12T07:24:25.744Z,1.65
2023-04-12T07:26:52.149Z,1.62
2023-04-12T07:29:18.578Z,1.61
2023-04-12T07:31:45.765Z,1.76
2023-04-12T07:34:12.465Z,1.73
2023-04-12T07:36:38.922Z,1.72
2023-04-12T07:39:05.323Z,1.65
2023-04-12T07:41:31.729Z,1.66
2023-04-12T07:43:58.129Z,1.78
2023-04-12T07:46:24.683Z,1.85
2023-04-12T07:48:51.167Z,1.54
2023-04-12T07:51:17.661Z,1.59
2023-04-12T07:53:44.066Z,1.67
2023-04-12T07:56:10.469Z,1.73
2023-04-12T07:58:36.854Z,1.64
2023-04-12T08:01:03.282Z,1.51
2023-04-12T08:03:29.780Z,1.56
2023-04-12T08:05:56.261Z,1.40
2023-04-12T08:08:22.792Z,1.59
2023-04-12T08:10:49.220Z,1.73
2023-04-12T08:13:15.649Z,1.41
2023-04-12T08:15:42.116Z,1.45
2023-04-12T08:18:08.585Z,1.52
2023-04-12T08:20:35.017Z,1.53
2023-04-12T08:23:01.476Z,1.59
2023-04-12T08:25:27.891Z,1.46
2023-04-12T08:27:54.287Z,1.43
2023-04-12T08:30:20.693Z,1.68
2023-04-12T08:32:47.150Z,1.50
2023-04-12T08:35:13.605Z,1.61
2023-04-12T08:37:40.291Z,1.46
2023-04-12T08:40:06.677Z,1.55
2023-04-12T08:42:33.083Z,1.67
2023-04-12T08:44:59.525Z,1.48
2023-04-12T08:47:26.006Z,1.49
2023-04-12T08:49:52.436Z,1.52
2023-04-12T08:52:18.899Z,1.55
2023-04-12T08:54:45.320Z,1.61
2023-04-12T08:57:11.718Z,1.48
2023-04-12T08:59:38.131Z,1.61
2023-04-12T09:02:04.587Z,1.54
2023-04-12T09:04:31.185Z,1.85
2023-04-12T09:06:57.655Z,1.48
2023-04-12T09:09:24.065Z,1.61
2023-04-12T09:11:50.465Z,1.61
2023-04-12T09:14:16.869Z,1.52
2023-04-12T09:16:43.347Z,1.69
2023-04-12T09:19:09.780Z,1.48
2023-04-12T09:21:36.205Z,1.34
2023-04-12T09:24:02.648Z,1.42
2023-04-12T09:26:29.047Z,1.16
2023-04-12T09:28:55.437Z,1.19
2023-04-12T09:31:21.883Z,1.15
2023-04-12T09:33:48.272Z,1.22
2023-04-12T09:36:14.753Z,1.26
2023-04-12T09:38:41.210Z,1.14
2023-04-12T09:41:07.604Z,1.19
2023-04-12T09:43:34.033Z,1.18
2023-04-12T09:46:00.424Z,1.09
2023-04-12T09:48:26.950Z,1.09
2023-04-12T09:50:53.473Z,1.13
2023-04-12T09:53:19.917Z,1.19
2023-04-12T09:55:46.374Z,1.13
2023-04-12T09:58:12.789Z,1.15
2023-04-12T10:00:39.200Z,0.99
2023-04-12T10:03:05.894Z,1.08
2023-04-12T10:05:33.100Z,1.05
2023-04-12T10:07:59.767Z,1.07
2023-04-12T10:10:26.181Z,1.04
2023-04-12T10:12:52.757Z,1.14
2023-04-12T10:15:19.168Z,1.09
2023-04-12T10:17:45.769Z,0.99
2023-04-12T10:20:12.299Z,1.03
2023-04-12T10:22:38.840Z,1.10
2023-04-12T10:25:05.292Z,1.08
2023-04-12T10:27:31.730Z,1.02
2023-04-12T10:29:58.205Z,1.07
2023-04-12T10:32:24.759Z,0.92
2023-04-12T10:34:51.198Z,1.20
2023-04-12T10:37:17.674Z,1.12
2023-04-12T10:39:44.142Z,0.96
2023-04-12T10:42:10.539Z,0.85
2023-04-12T10:44:36.943Z,0.83
2023-04-12T10:47:03.451Z,0.77
2023-04-12T10:49:29.932Z,0.85
2023-04-12T10:51:56.345Z,0.86
2023-04-12T10:54:22.765Z,0.83
2023-04-12T10:56:49.280Z,0.79
2023-04-12T10:59:15.736Z,0.74
2023-04-12T11:01:42.273Z,0.98
2023-04-12T11:04:09.038Z,0.98
2023-04-12T11:06:35.559Z,1.02
2023-04-12T11:09:01.943Z,0.89
2023-04-12T11:11:28.350Z,0.93
2023-04-12T11:13:54.743Z,1.21
2023-04-12T11:16:21.200Z,0.91
2023-04-12T11:18:47.721Z,0.79
2023-04-12T11:21:14.141Z,0.88
2023-04-12T11:23:40.594Z,0.83
2023-04-12T11:26:07.561Z,0.86
2023-04-12T11:28:35.407Z,0.84
2023-04-12T11:31:02.072Z,0.89
2023-04-12T11:33:28.478Z,0.85
2023-04-12T11:35:54.862Z,1.03
2023-04-12T11:38:21.256Z,1.15
2023-04-12T11:40:47.655Z,1.05
2023-04-12T11:43:14.061Z,1.16
2023-04-12T11:45:40.500Z,0.94
2023-04-12T11:48:07.134Z,0.99
2023-04-12T11:50:33.600Z,0.90
2023-04-12T11:53:00.011Z,0.95
2023-04-12T11:55:26.414Z,0.95
2023-04-12T11:57:52.817Z,1.03
2023-04-12T12:00:19.279Z,1.02
2023-04-12T12:02:52.549Z,1.06
2023-04-12T12:05:30.973Z,1.01
2023-04-12T12:07:58.876Z,0.86
2023-04-12T12:10:42.025Z,1.03
2023-04-12T12:13:12.835Z,0.95
2023-04-12T12:15:39.409Z,0.94
2023-04-12T12:18:05.895Z,0.91
2023-04-12T12:20:32.320Z,0.97
2023-04-12T12:22:58.695Z,0.90
2023-04-12T12:25:25.172Z,0.79
2023-04-12T12:27:51.620Z,0.97
2023-04-12T12:30:18.020Z,0.83
2023-04-12T12:32:44.517Z,0.78
2023-04-12T12:35:10.946Z,0.92
2023-04-12T12:37:37.356Z,1.06
2023-04-12T12:40:03.792Z,0.93
2023-04-12T12:42:30.188Z,0.95
2023-04-12T12:44:56.570Z,1.02
2023-04-12T12:47:23.067Z,1.08
2023-04-12T12:49:49.510Z,1.01
2023-04-12T12:52:17.785Z,0.86
2023-04-12T12:54:44.436Z,1.01
2023-04-12T12:57:10.873Z,0.90
2023-04-12T12:59:37.285Z,1.05
2023-04-12T13:02:03.794Z,0.91
2023-04-12T13:04:30.332Z,0.78
2023-04-12T13:06:56.756Z,0.82
2023-04-12T13:09:23.182Z,1.09
2023-04-12T13:11:49.574Z,1.09
2023-04-12T13:14:15.965Z,0.99
2023-04-12T13:16:42.410Z,0.96
2023-04-12T13:19:08.826Z,0.98
2023-04-12T13:21:35.238Z,1.04
2023-04-12T13:24:01.625Z,1.18
2023-04-12T13:26:28.044Z,1.33
2023-04-12T13:28:54.477Z,1.38
2023-04-12T13:31:20.908Z,1.42
2023-04-12T13:33:47.351Z,1.40
2023-04-12T13:36:13.765Z,1.30
2023-04-12T13:38:40.169Z,1.39
2023-04-12T13:41:06.570Z,1.33
2023-04-12T13:43:32.949Z,1.41
2023-04-12T13:45:59.394Z,1.17
2023-04-12T13:48:25.838Z,1.15
2023-04-12T13:50:53.566Z,1.21
2023-04-12T13:53:21.902Z,1.16
2023-04-12T13:55:48.316Z,1.14
2023-04-12T13:58:14.685Z,1.26
2023-04-12T14:00:41.084Z,1.26
2023-04-12T14:03:07.610Z,1.14
2023-04-12T14:05:34.192Z,1.27
2023-04-12T14:08:00.605Z,1.07
2023-04-12T14:10:26.985Z,1.08
2023-04-12T14:12:53.374Z,1.14
2023-04-12T14:15:19.776Z,1.33
2023-04-12T14:17:46.344Z,1.16
2023-04-12T14:20:12.926Z,1.20
2023-04-12T14:22:39.332Z,1.15
2023-04-12T14:25:06.919Z,1.25
2023-04-12T14:27:33.357Z,1.21
2023-04-12T14:29:59.777Z,1.03
2023-04-12T14:32:26.188Z,1.26
2023-04-12T14:34:52.601Z,1.20
2023-04-12T14:37:19.005Z,1.30
2023-04-12T14:39:45.427Z,1.14
2023-04-12T14:42:11.812Z,1.15
2023-04-12T14:44:38.214Z,1.19
2023-04-12T14:47:04.640Z,1.21
2023-04-12T14:49:33.001Z,1.27
2023-04-12T14:51:59.880Z,1.25
2023-04-12T14:54:26.270Z,1.31
2023-04-12T14:56:55.502Z,1.26
2023-04-12T14:59:22.434Z,1.28
2023-04-12T15:01:48.972Z,1.41
2023-04-12T15:04:15.564Z,1.43
2023-04-12T15:06:42.093Z,1.27
2023-04-12T15:09:08.499Z,1.26
2023-04-12T15:11:34.904Z,1.28
2023-04-12T15:14:01.330Z,1.35
2023-04-12T15:16:27.863Z,1.33
2023-04-12T15:18:54.319Z,1.56
2023-04-12T15:21:20.725Z,2.21
2023-04-12T15:23:47.165Z,2.37
2023-04-12T15:26:13.597Z,2.47
2023-04-12T15:28:39.977Z,2.66
2023-04-12T15:31:06.390Z,2.76
2023-04-12T15:33:32.784Z,3.01
2023-04-12T15:35:59.220Z,2.99
2023-04-12T15:38:25.645Z,2.93
2023-04-12T15:40:52.096Z,2.65
2023-04-12T15:43:18.521Z,2.56
2023-04-12T15:45:44.976Z,2.15
2023-04-12T15:48:11.371Z,2.03
2023-04-12T15:50:37.770Z,1.62
2023-04-12T15:53:04.160Z,1.56
2023-04-12T15:55:30.539Z,1.53
2023-04-12T15:57:56.954Z,1.23
2023-04-12T16:00:23.380Z,1.05
2023-04-12T16:02:50.103Z,0.93
2023-04-12T16:05:16.750Z,0.85
2023-04-12T16:07:43.325Z,0.65
2023-04-12T16:10:09.717Z,0.75
2023-04-12T16:12:36.112Z,0.76
2023-04-12T16:15:02.551Z,0.64
2023-04-12T16:17:29.062Z,0.67
2023-04-12T16:19:55.560Z,0.64
2023-04-12T16:22:22.195Z,0.72
2023-04-12T16:24:48.778Z,0.49
2023-04-12T16:27:15.173Z,0.67
2023-04-12T16:29:41.554Z,0.60
2023-04-12T16:32:08.019Z,0.49
2023-04-12T16:34:34.695Z,0.50
2023-04-12T16:37:01.070Z,0.63
2023-04-12T16:39:27.486Z,0.59
2023-04-12T16:41:53.958Z,0.54
2023-04-12T16:44:20.369Z,0.52
2023-04-12T16:46:46.798Z,0.59
2023-04-12T16:49:13.200Z,0.61
2023-04-12T16:51:39.609Z,0.76
2023-04-12T16:54:06.017Z,0.95
2023-04-12T16:56:32.457Z,1.01
2023-04-12T16:58:58.860Z,1.01
2023-04-12T17:01:25.265Z,1.50
2023-04-12T17:03:51.741Z,1.47
2023-04-12T17:06:18.180Z,2.21
2023-04-12T17:08:44.569Z,2.45
2023-04-12T17:11:10.962Z,2.57
2023-04-12T17:13:37.449Z,2.30
2023-04-12T17:16:03.954Z,2.26
2023-04-12T17:18:30.429Z,2.33
2023-04-12T17:20:56.836Z,2.28
2023-04-12T17:23:23.250Z,2.69
2023-04-12T17:25:50.259Z,2.89
2023-04-12T17:28:16.660Z,2.54
2023-04-12T17:30:43.609Z,2.58
2023-04-12T17:33:10.010Z,2.55
2023-04-12T17:35:36.399Z,2.42
2023-04-12T17:38:02.825Z,2.69
2023-04-12T17:40:29.235Z,2.72
2023-04-12T17:42:55.664Z,2.80
2023-04-12T17:45:22.156Z,2.67
2023-04-12T17:47:48.635Z,3.08
2023-04-12T17:50:15.060Z,2.85
2023-04-12T17:52:41.529Z,2.40
2023-04-12T17:55:07.934Z,2.38
2023-04-12T17:57:34.380Z,1.92
2023-04-12T18:00:00.804Z,1.77
2023-04-12T18:02:27.616Z,1.76
2023-04-12T18:04:54.269Z,1.83
2023-04-12T18:07:20.638Z,1.84
2023-04-12T18:09:47.045Z,1.90
2023-04-12T18:12:13.473Z,1.88
2023-04-12T18:14:39.877Z,1.64
2023-04-12T18:17:06.269Z,1.31
2023-04-12T18:19:32.715Z,1.38
2023-04-12T18:21:59.236Z,1.37
2023-04-12T18:24:25.677Z,1.21
2023-04-12T18:26:52.071Z,1.13
2023-04-12T18:29:18.482Z,1.03
2023-04-12T18:31:44.957Z,0.92
2023-04-12T18:34:11.379Z,0.85
2023-04-12T18:36:37.785Z,0.72
2023-04-12T18:39:04.195Z,0.65
2023-04-12T18:41:30.594Z,0.60
2023-04-12T18:43:57.493Z,0.59
2023-04-12T18:46:24.533Z,0.48
2023-04-12T18:48:50.958Z,0.44
2023-04-12T18:51:17.351Z,0.42
2023-04-12T18:53:44.037Z,0.47
2023-04-12T18:56:10.440Z,0.52
2023-04-12T18:58:54.148Z,0.42
2023-04-12T19:01:21.952Z,0.52
2023-04-12T19:03:48.672Z,0.48
2023-04-12T19:06:15.159Z,0.49
2023-04-12T19:08:42.964Z,0.46
2023-04-12T19:11:09.421Z,0.40
2023-04-12T19:13:35.835Z,0.38
2023-04-12T19:16:02.272Z,0.48
2023-04-12T19:18:28.691Z,0.63
2023-04-12T19:20:55.100Z,0.79
2023-04-12T19:23:21.496Z,0.38
2023-04-12T19:25:47.916Z,0.38
2023-04-12T19:28:14.350Z,0.41
2023-04-12T19:30:40.741Z,0.34
2023-04-12T19:33:07.154Z,0.32
2023-04-12T19:35:33.595Z,0.24
2023-04-12T19:37:59.991Z,0.33
2023-04-12T19:40:26.403Z,0.44
2023-04-12T19:42:52.798Z,0.53
2023-04-12T19:45:19.201Z,0.56
2023-04-12T19:47:45.621Z,0.61
2023-04-12T19:50:12.051Z,0.59
2023-04-12T19:52:38.460Z,0.64
2023-04-12T19:55:04.870Z,0.50
2023-04-12T19:57:31.261Z,0.53
2023-04-12T19:59:57.683Z,0.65
2023-04-12T20:02:24.131Z,0.66
2023-04-12T20:04:50.595Z,0.78
2023-04-12T20:07:17.002Z,0.63
2023-04-12T20:09:43.382Z,0.55
2023-04-12T20:12:09.783Z,0.58
2023-04-12T20:14:36.241Z,0.62
2023-04-12T20:17:02.709Z,0.58
2023-04-12T20:19:29.178Z,0.60
2023-04-12T20:21:55.579Z,0.65
2023-04-12T20:24:21.963Z,0.65
2023-04-12T20:26:48.358Z,0.64
2023-04-12T20:29:14.783Z,0.58
2023-04-12T20:31:41.220Z,0.57
2023-04-12T20:34:07.602Z,0.51
2023-04-12T20:36:34.114Z,0.60
2023-04-12T20:39:00.656Z,0.67
2023-04-12T20:41:27.105Z,0.49
2023-04-12T20:43:53.508Z,0.80
2023-04-12T20:46:19.954Z,0.58
2023-04-12T20:48:46.426Z,0.47
2023-04-12T20:51:12.839Z,0.53
2023-04-12T20:53:39.250Z,0.45
2023-04-12T20:56:05.640Z,0.57
2023-04-12T20:58:32.070Z,0.59
2023-04-12T21:00:58.539Z,0.59
2023-04-12T21:03:25.084Z,0.43
2023-04-12T21:05:51.590Z,0.47
2023-04-12T21:08:17.974Z,0.41
2023-04-12T21:10:44.465Z,0.53
2023-04-12T21:13:10.869Z,0.55
2023-04-12T21:15:37.282Z,0.56
2023-04-12T21:18:03.761Z,0.61
2023-04-12T21:20:30.221Z,0.65
2023-04-12T21:22:56.625Z,0.85
2023-04-12T21:25:23.020Z,0.68
2023-04-12T21:27:49.809Z,0.82
2023-04-12T21:30:16.450Z,0.82
2023-04-12T21:32:43.056Z,0.90
2023-04-12T21:35:09.541Z,0.97
2023-04-12T21:37:35.971Z,1.00
2023-04-12T21:40:02.460Z,0.85
2023-04-12T21:42:28.857Z,0.77
2023-04-12T21:44:55.240Z,0.84
2023-04-12T21:47:21.814Z,0.86
2023-04-12T21:49:48.247Z,0.98
2023-04-12T21:52:14.887Z,1.16
2023-04-12T21:54:41.489Z,0.94
2023-04-12T21:57:07.925Z,1.30
2023-04-12T21:59:34.541Z,0.95
2023-04-12T22:02:01.103Z,0.94
2023-04-12T22:04:27.551Z,1.09
2023-04-12T22:06:54.040Z,0.80
2023-04-12T22:09:20.543Z,0.73
2023-04-12T22:11:46.969Z,0.83
2023-04-12T22:14:13.356Z,0.91
2023-04-12T22:16:39.896Z,0.82
2023-04-12T22:19:06.369Z,1.08
2023-04-12T22:21:32.872Z,0.83
2023-04-12T22:23:59.439Z,0.95
2023-04-12T22:26:25.970Z,1.00
2023-04-12T22:28:52.408Z,1.03
2023-04-12T22:31:18.886Z,0.98
2023-04-12T22:33:45.378Z,1.32
2023-04-12T22:36:11.860Z,1.27
2023-04-12T22:38:38.311Z,1.49
2023-04-12T22:41:04.715Z,1.25
2023-04-12T22:43:31.130Z,1.23
2023-04-12T22:45:57.528Z,1.26
2023-04-12T22:48:24.398Z,1.40
2023-04-12T22:50:50.822Z,1.90
2023-04-12T22:53:17.212Z,1.68
2023-04-12T22:55:43.591Z,1.46
2023-04-12T22:58:09.991Z,1.42
2023-04-12T23:00:36.395Z,1.47
2023-04-12T23:03:03.046Z,1.87
2023-04-12T23:05:29.574Z,1.38
2023-04-12T23:07:56.087Z,1.45
2023-04-12T23:10:22.645Z,1.70
2023-04-12T23:12:49.038Z,1.86
2023-04-12T23:15:15.421Z,1.99
2023-04-12T23:17:42.429Z,1.78
2023-04-12T23:20:08.850Z,1.80
2023-04-12T23:25:14.411Z,2.14
2023-04-12T23:27:40.809Z,1.64
2023-04-12T23:30:07.199Z,1.60
2023-04-12T23:32:33.614Z,1.60
2023-04-12T23:35:00.023Z,1.68
2023-04-12T23:37:26.450Z,1.81
2023-04-12T23:39:52.877Z,1.58
2023-04-12T23:42:19.312Z,2.24
2023-04-12T23:44:48.791Z,1.88
2023-04-12T23:47:15.222Z,2.13
2023-04-12T23:49:41.589Z,2.14
2023-04-12T23:52:08.003Z,1.95
2023-04-12T23:54:34.414Z,1.86
2023-04-12T23:57:00.847Z,1.87
2023-04-12T23:59:27.769Z,1.78
